createdAt,value
2022-10-16T00:01:46.891Z,13.90
2022-10-16T00:04:15.758Z,13.90
2022-10-16T00:06:44.463Z,13.93
2022-10-16T00:09:13.685Z,13.99
2022-10-16T00:11:43.246Z,14.05
2022-10-16T00:14:15.378Z,14.09
2022-10-16T00:16:44.049Z,14.07
2022-10-16T00:19:14.334Z,14.05
2022-10-16T00:21:43.379Z,14.14
2022-10-16T00:24:12.629Z,14.11
2022-10-16T00:26:41.973Z,14.12
2022-10-16T00:29:12.289Z,14.10
2022-10-16T00:31:40.998Z,14.12
2022-10-16T00:34:09.756Z,13.96
2022-10-16T00:36:38.756Z,13.74
2022-10-16T00:39:08.791Z,13.70
2022-10-16T00:41:37.536Z,13.37
2022-10-16T00:44:48.086Z,13.30
2022-10-16T00:47:21.729Z,13.22
2022-10-16T00:49:51.861Z,13.18
2022-10-16T00:52:20.704Z,13.20
2022-10-16T00:54:49.552Z,13.27
2022-10-16T00:57:18.385Z,13.22
2022-10-16T00:59:49.347Z,13.22
2022-10-16T01:02:18.812Z,13.23
2022-10-16T01:04:48.984Z,13.39
2022-10-16T01:07:26.953Z,13.38
2022-10-16T01:10:03.299Z,13.42
2022-10-16T01:12:39.138Z,13.48
2022-10-16T01:15:15.581Z,13.50
2022-10-16T01:17:48.710Z,13.46
2022-10-16T01:20:24.836Z,13.36
2022-10-16T01:23:08.853Z,13.22
2022-10-16T01:26:09.749Z,13.30
2022-10-16T01:28:43.448Z,13.23
2022-10-16T01:31:13.891Z,13.15
2022-10-16T01:33:42.785Z,13.20
2022-10-16T01:36:15.761Z,13.21
2022-10-16T01:38:47.245Z,13.21
2022-10-16T01:41:20.912Z,13.08
2022-10-16T01:43:53.376Z,13.05
2022-10-16T01:46:23.484Z,13.05
2022-10-16T01:48:53.930Z,13.10
2022-10-16T01:51:23.149Z,13.14
2022-10-16T01:53:56.988Z,13.03
2022-10-16T01:56:26.888Z,13.00
2022-10-16T01:58:59.085Z,12.93
2022-10-16T02:01:29.561Z,12.96
2022-10-16T02:03:58.405Z,12.99
2022-10-16T02:06:27.283Z,12.87
2022-10-16T02:08:56.335Z,12.88
2022-10-16T02:11:25.074Z,12.88
2022-10-16T02:13:58.136Z,13.01
2022-10-16T02:16:35.834Z,13.08
2022-10-16T02:19:05.085Z,12.93
2022-10-16T02:21:39.960Z,12.89
2022-10-16T02:24:11.570Z,12.84
2022-10-16T02:26:46.255Z,12.85
2022-10-16T02:29:19.272Z,12.78
2022-10-16T02:31:50.423Z,12.90
2022-10-16T02:34:20.838Z,12.87
2022-10-16T02:36:49.382Z,12.83
2022-10-16T02:39:18.653Z,12.87
2022-10-16T02:41:47.438Z,12.89
2022-10-16T02:44:17.649Z,12.93
2022-10-16T02:46:46.145Z,12.91
2022-10-16T02:49:14.924Z,12.83
2022-10-16T02:51:43.696Z,12.78
2022-10-16T02:54:12.463Z,12.82
2022-10-16T02:56:41.545Z,12.77
2022-10-16T02:59:11.236Z,12.85
2022-10-16T03:01:41.000Z,12.74
2022-10-16T03:04:09.663Z,12.76
2022-10-16T03:06:39.315Z,12.64
2022-10-16T03:09:08.082Z,12.59
2022-10-16T03:11:36.772Z,12.55
2022-10-16T03:14:05.508Z,12.63
2022-10-16T03:16:33.916Z,12.64
2022-10-16T03:19:04.074Z,12.64
2022-10-16T03:21:33.236Z,12.55
2022-10-16T03:24:01.955Z,12.68
2022-10-16T03:26:30.796Z,12.69
2022-10-16T03:28:59.593Z,12.70
2022-10-16T03:31:28.066Z,12.65
2022-10-16T03:33:56.892Z,12.61
2022-10-16T03:36:27.300Z,12.69
2022-10-16T03:38:55.810Z,12.65
2022-10-16T03:41:24.592Z,12.60
2022-10-16T03:43:52.948Z,12.66
2022-10-16T03:46:21.663Z,12.55
2022-10-16T03:48:50.417Z,12.45
2022-10-16T03:51:19.199Z,12.47
2022-10-16T03:53:49.317Z,12.44
2022-10-16T03:56:18.412Z,12.39
2022-10-16T03:58:46.797Z,12.34
2022-10-16T04:01:15.633Z,12.36
2022-10-16T04:03:44.671Z,12.30
2022-10-16T04:06:13.460Z,12.30
2022-10-16T04:08:44.854Z,12.34
2022-10-16T04:11:15.270Z,12.29
2022-10-16T04:13:43.801Z,12.27
2022-10-16T04:16:12.574Z,12.28
2022-10-16T04:18:41.454Z,12.22
2022-10-16T04:21:10.339Z,12.21
2022-10-16T04:23:41.598Z,12.22
2022-10-16T04:26:11.447Z,12.22
2022-10-16T04:28:42.446Z,12.39
2022-10-16T04:31:11.360Z,12.40
2022-10-16T04:33:40.010Z,12.38
2022-10-16T04:36:08.836Z,12.30
2022-10-16T04:38:38.553Z,12.22
2022-10-16T04:41:07.462Z,12.17
2022-10-16T04:43:35.934Z,12.11
2022-10-16T04:46:06.804Z,12.07
2022-10-16T04:48:35.509Z,12.06
2022-10-16T04:51:04.329Z,12.04
2022-10-16T04:53:32.997Z,11.95
2022-10-16T04:56:01.719Z,11.90
2022-10-16T04:58:30.357Z,11.87
2022-10-16T05:00:59.109Z,11.87
2022-10-16T05:06:02.907Z,11.77
2022-10-16T05:08:31.785Z,11.77
2022-10-16T05:11:01.277Z,11.75
2022-10-16T05:13:29.810Z,11.68
2022-10-16T05:15:58.587Z,11.68
2022-10-16T05:18:28.859Z,11.74
2022-10-16T05:20:57.620Z,11.66
2022-10-16T05:23:26.368Z,11.69
2022-10-16T05:25:56.690Z,11.62
2022-10-16T05:28:25.478Z,11.65
2022-10-16T05:30:54.398Z,11.68
2022-10-16T05:33:23.756Z,11.50
2022-10-16T05:35:54.318Z,11.42
2022-10-16T05:38:23.245Z,11.46
2022-10-16T05:40:54.720Z,11.53
2022-10-16T05:43:23.642Z,11.45
2022-10-16T05:45:58.954Z,11.44
2022-10-16T05:48:28.322Z,11.46
2022-10-16T05:51:01.903Z,11.50
2022-10-16T05:53:30.790Z,11.62
2022-10-16T05:56:00.824Z,11.61
2022-10-16T05:58:31.900Z,11.73
2022-10-16T06:01:04.437Z,11.67
2022-10-16T06:03:33.267Z,11.80
2022-10-16T06:06:12.252Z,11.82
2022-10-16T06:08:41.577Z,11.84
2022-10-16T06:11:12.028Z,11.82
2022-10-16T06:13:42.863Z,12.08
2022-10-16T06:16:12.350Z,12.46
2022-10-16T06:18:41.460Z,12.94
2022-10-16T06:21:13.443Z,13.81
2022-10-16T06:23:42.274Z,14.40
2022-10-16T06:26:12.326Z,14.98
2022-10-16T06:28:41.174Z,15.18
2022-10-16T06:31:11.399Z,14.77
2022-10-16T06:33:40.388Z,14.93
2022-10-16T06:36:12.025Z,14.36
2022-10-16T06:38:41.094Z,14.63
2022-10-16T06:41:11.484Z,15.98
2022-10-16T06:43:39.844Z,16.94
2022-10-16T06:46:10.143Z,16.96
2022-10-16T06:48:38.675Z,16.22
2022-10-16T06:51:09.338Z,15.19
2022-10-16T06:54:01.215Z,14.70
2022-10-16T06:56:31.127Z,14.09
2022-10-16T06:58:59.720Z,14.37
2022-10-16T07:01:28.666Z,14.27
2022-10-16T07:03:57.893Z,14.00
2022-10-16T07:06:27.700Z,13.90
2022-10-16T07:08:57.909Z,13.74
2022-10-16T07:11:26.826Z,13.85
2022-10-16T07:13:56.609Z,13.72
2022-10-16T07:16:26.948Z,13.36
2022-10-16T07:18:59.817Z,13.65
2022-10-16T07:21:30.775Z,13.41
2022-10-16T07:24:02.504Z,13.29
2022-10-16T07:26:32.693Z,13.37
2022-10-16T07:29:01.963Z,13.36
2022-10-16T07:31:30.990Z,13.40
2022-10-16T07:34:00.802Z,14.42
2022-10-16T07:36:29.935Z,16.11
2022-10-16T07:39:00.170Z,18.65
2022-10-16T07:41:31.255Z,19.85
2022-10-16T07:44:01.684Z,20.48
2022-10-16T07:46:31.080Z,19.62
2022-10-16T07:48:59.922Z,18.94
2022-10-16T07:51:28.869Z,19.45
2022-10-16T07:53:57.617Z,21.38
2022-10-16T07:56:26.545Z,19.22
2022-10-16T07:58:57.616Z,18.63
2022-10-16T08:01:26.414Z,21.51
2022-10-16T08:03:55.612Z,22.39
2022-10-16T08:06:28.996Z,20.99
2022-10-16T08:08:58.319Z,21.43
2022-10-16T08:11:27.303Z,21.34
2022-10-16T08:13:57.263Z,20.53
2022-10-16T08:16:27.173Z,21.72
2022-10-16T08:18:56.060Z,20.40
2022-10-16T08:21:25.301Z,20.10
2022-10-16T08:23:57.253Z,19.67
2022-10-16T08:26:28.598Z,20.65
2022-10-16T08:28:58.599Z,21.49
2022-10-16T08:31:28.404Z,20.07
2022-10-16T08:33:58.404Z,19.23
2022-10-16T08:36:29.065Z,18.76
2022-10-16T08:38:57.956Z,19.42
2022-10-16T08:41:56.488Z,19.27
2022-10-16T08:44:37.276Z,18.84
2022-10-16T08:47:16.384Z,18.97
2022-10-16T08:50:00.425Z,18.32
2022-10-16T08:52:32.352Z,18.46
2022-10-16T08:55:01.366Z,19.21
2022-10-16T08:57:30.946Z,18.46
2022-10-16T09:00:04.258Z,18.80
2022-10-16T09:02:35.057Z,18.72
2022-10-16T09:05:21.191Z,18.40
2022-10-16T09:07:55.848Z,18.49
2022-10-16T09:10:33.223Z,18.43
2022-10-16T09:13:06.645Z,18.12
2022-10-16T09:15:40.072Z,20.31
2022-10-16T09:18:14.088Z,21.10
2022-10-16T09:20:50.731Z,21.09
2022-10-16T09:23:21.941Z,22.06
2022-10-16T09:25:51.628Z,22.26
2022-10-16T09:28:21.045Z,23.65
2022-10-16T09:30:51.719Z,21.70
2022-10-16T09:33:24.731Z,22.00
2022-10-16T09:35:55.206Z,21.66
2022-10-16T09:38:29.076Z,20.72
2022-10-16T09:41:03.054Z,19.23
2022-10-16T09:43:36.828Z,18.83
2022-10-16T09:46:11.562Z,18.37
2022-10-16T09:48:42.452Z,18.99
2022-10-16T09:51:26.055Z,19.58
2022-10-16T09:53:58.818Z,20.34
2022-10-16T09:56:29.572Z,21.40
2022-10-16T09:58:59.318Z,21.29
2022-10-16T10:01:38.959Z,22.90
2022-10-16T10:04:08.311Z,23.77
2022-10-16T10:06:39.131Z,21.71
2022-10-16T10:09:16.784Z,21.60
2022-10-16T10:11:49.635Z,21.90
2022-10-16T10:14:27.516Z,23.73
2022-10-16T10:17:12.676Z,23.91
2022-10-16T10:19:43.665Z,22.81
2022-10-16T10:22:25.756Z,23.64
2022-10-16T10:25:18.206Z,22.30
2022-10-16T10:27:58.610Z,20.86
2022-10-16T10:30:32.115Z,20.94
2022-10-16T10:33:14.319Z,19.66
2022-10-16T10:35:47.822Z,20.49
2022-10-16T10:38:27.327Z,19.83
2022-10-16T10:41:01.353Z,19.44
2022-10-16T10:43:42.415Z,19.48
2022-10-16T10:46:13.954Z,19.97
2022-10-16T10:48:57.289Z,20.10
2022-10-16T10:51:31.506Z,18.89
2022-10-16T10:54:09.597Z,19.90
2022-10-16T10:56:45.836Z,19.79
2022-10-16T10:59:27.495Z,20.32
2022-10-16T11:01:58.941Z,19.80
2022-10-16T11:04:53.152Z,20.28
2022-10-16T11:07:26.408Z,19.38
2022-10-16T11:09:58.586Z,19.67
2022-10-16T11:12:30.320Z,19.52
2022-10-16T11:15:04.249Z,19.35
2022-10-16T11:17:36.292Z,19.46
2022-10-16T11:20:15.697Z,19.77
2022-10-16T11:22:48.245Z,19.97
2022-10-16T11:25:21.102Z,21.44
2022-10-16T11:27:53.467Z,21.33
2022-10-16T11:30:24.246Z,20.39
2022-10-16T11:33:07.116Z,20.08
2022-10-16T11:35:43.121Z,19.14
2022-10-16T11:38:16.838Z,19.26
2022-10-16T11:40:46.922Z,19.79
2022-10-16T11:43:17.107Z,20.21
2022-10-16T11:45:48.619Z,22.82
2022-10-16T11:48:24.222Z,22.35
2022-10-16T11:50:56.217Z,22.51
2022-10-16T11:53:42.434Z,22.11
2022-10-16T11:56:14.863Z,22.97
2022-10-16T11:58:50.822Z,22.13
2022-10-16T12:04:02.682Z,21.73
2022-10-16T12:06:38.539Z,20.78
2022-10-16T12:09:07.901Z,20.44
2022-10-16T12:11:39.339Z,20.77
2022-10-16T12:14:23.798Z,20.14
2022-10-16T12:16:57.348Z,20.11
2022-10-16T12:19:29.183Z,20.88
2022-10-16T12:22:01.443Z,21.83
2022-10-16T12:24:35.866Z,22.45
2022-10-16T12:27:05.466Z,21.53
2022-10-16T12:29:37.544Z,21.02
2022-10-16T12:32:10.855Z,21.38
2022-10-16T12:34:41.872Z,20.63
2022-10-16T12:37:17.630Z,20.74
2022-10-16T12:39:46.481Z,20.75
2022-10-16T12:42:36.027Z,19.74
2022-10-16T12:45:24.988Z,20.09
2022-10-16T12:47:55.650Z,19.89
2022-10-16T12:50:27.924Z,19.46
2022-10-16T12:52:57.695Z,18.98
2022-10-16T12:55:26.750Z,18.88
2022-10-16T12:58:11.969Z,18.85
2022-10-16T13:00:46.893Z,18.97
2022-10-16T13:03:56.867Z,18.89
2022-10-16T13:06:35.625Z,18.80
2022-10-16T13:09:22.354Z,18.89
2022-10-16T13:12:15.527Z,18.68
2022-10-16T13:15:04.657Z,18.58
2022-10-16T13:17:39.631Z,18.62
2022-10-16T13:20:16.683Z,18.65
2022-10-16T13:22:55.280Z,18.66
2022-10-16T13:25:37.049Z,18.69
2022-10-16T13:28:08.017Z,18.68
2022-10-16T13:30:39.570Z,18.64
2022-10-16T13:33:17.696Z,18.69
2022-10-16T13:35:52.030Z,18.65
2022-10-16T13:38:22.208Z,18.64
2022-10-16T13:40:54.458Z,18.72
2022-10-16T13:43:26.144Z,18.81
2022-10-16T13:45:56.447Z,18.80
2022-10-16T13:48:25.201Z,18.86
2022-10-16T13:51:05.047Z,18.67
2022-10-16T13:53:35.191Z,18.64
2022-10-16T13:56:07.297Z,18.62
2022-10-16T13:58:35.813Z,18.59
2022-10-16T14:01:07.056Z,18.54
2022-10-16T14:03:37.803Z,18.67
2022-10-16T14:06:10.978Z,18.61
2022-10-16T14:08:45.199Z,18.64
2022-10-16T14:11:15.491Z,18.55
2022-10-16T14:13:47.095Z,18.62
2022-10-16T14:16:20.271Z,18.65
2022-10-16T14:21:23.091Z,18.54
2022-10-16T14:23:51.839Z,18.56
2022-10-16T14:26:23.572Z,18.45
2022-10-16T14:29:05.184Z,18.59
2022-10-16T14:31:37.419Z,18.58
2022-10-16T14:34:06.798Z,18.45
2022-10-16T14:36:36.120Z,18.41
2022-10-16T14:39:07.083Z,18.41
2022-10-16T14:41:45.511Z,18.39
2022-10-16T14:44:14.659Z,18.50
2022-10-16T14:46:44.231Z,18.53
2022-10-16T14:49:19.295Z,18.48
2022-10-16T14:51:48.526Z,18.49
2022-10-16T14:54:19.431Z,18.49
2022-10-16T14:56:51.498Z,18.52
2022-10-16T14:59:30.440Z,18.64
2022-10-16T15:01:59.034Z,18.62
2022-10-16T15:04:27.809Z,18.41
2022-10-16T15:06:56.580Z,18.36
2022-10-16T15:09:25.489Z,18.43
2022-10-16T15:11:55.714Z,18.36
2022-10-16T15:14:24.319Z,18.35
2022-10-16T15:16:53.472Z,18.29
2022-10-16T15:19:22.366Z,18.18
2022-10-16T15:21:51.973Z,18.14
2022-10-16T15:24:21.612Z,18.17
2022-10-16T15:26:53.306Z,18.05
2022-10-16T15:29:23.571Z,18.04
2022-10-16T15:31:54.593Z,18.07
2022-10-16T15:34:23.355Z,18.03
2022-10-16T15:36:54.534Z,18.06
2022-10-16T15:39:23.701Z,17.96
2022-10-16T15:41:54.418Z,18.02
2022-10-16T15:44:27.318Z,17.90
2022-10-16T15:46:57.081Z,17.87
2022-10-16T15:49:25.937Z,17.84
2022-10-16T15:51:56.051Z,17.81
2022-10-16T15:54:24.938Z,17.76
2022-10-16T15:56:53.736Z,17.73
2022-10-16T15:59:24.840Z,17.65
2022-10-16T16:01:53.474Z,17.70
2022-10-16T16:04:42.732Z,17.66
2022-10-16T16:07:12.108Z,17.63
2022-10-16T16:09:40.992Z,17.60
2022-10-16T16:12:09.736Z,17.60
2022-10-16T16:14:40.001Z,17.59
2022-10-16T16:17:08.731Z,17.61
2022-10-16T16:19:38.576Z,17.59
2022-10-16T16:22:09.572Z,17.48
2022-10-16T16:24:39.830Z,17.31
2022-10-16T16:27:08.950Z,17.26
2022-10-16T16:29:38.247Z,17.27
2022-10-16T16:32:08.623Z,17.25
2022-10-16T16:34:37.101Z,17.17
2022-10-16T16:37:05.829Z,17.22
2022-10-16T16:39:34.852Z,17.16
2022-10-16T16:42:05.160Z,17.06
2022-10-16T16:44:33.723Z,17.07
2022-10-16T16:47:02.524Z,17.04
2022-10-16T16:49:32.704Z,17.01
2022-10-16T16:52:01.267Z,17.00
2022-10-16T16:54:30.346Z,16.97
2022-10-16T16:56:59.206Z,16.94
2022-10-16T16:59:28.162Z,16.92
2022-10-16T17:01:57.259Z,16.83
2022-10-16T17:04:26.170Z,16.81
2022-10-16T17:06:56.607Z,16.80
2022-10-16T17:09:26.071Z,16.75
2022-10-16T17:11:54.962Z,16.73
2022-10-16T17:14:23.882Z,16.67
2022-10-16T17:16:54.282Z,16.68
2022-10-16T17:19:22.960Z,16.64
2022-10-16T17:21:52.519Z,16.61
2022-10-16T17:24:22.705Z,16.56
2022-10-16T17:26:51.466Z,16.52
2022-10-16T17:29:20.474Z,16.46
2022-10-16T17:31:50.607Z,16.47
2022-10-16T17:34:19.715Z,16.42
2022-10-16T17:36:48.558Z,16.40
2022-10-16T17:39:19.337Z,16.39
2022-10-16T17:41:50.315Z,16.37
2022-10-16T17:44:22.590Z,16.35
2022-10-16T17:46:52.759Z,16.36
2022-10-16T17:49:22.201Z,16.34
2022-10-16T17:51:52.575Z,16.32
2022-10-16T17:54:21.433Z,16.29
2022-10-16T17:56:51.521Z,16.18
2022-10-16T17:59:23.310Z,16.16
2022-10-16T18:01:52.283Z,16.17
2022-10-16T18:04:21.292Z,16.16
2022-10-16T18:06:50.353Z,16.13
2022-10-16T18:09:21.050Z,16.09
2022-10-16T18:11:59.623Z,16.05
2022-10-16T18:14:29.411Z,16.04
2022-10-16T18:16:58.401Z,16.04
2022-10-16T18:19:27.501Z,16.00
2022-10-16T18:21:56.775Z,15.96
2022-10-16T18:24:26.145Z,15.88
2022-10-16T18:26:57.706Z,15.83
2022-10-16T18:29:27.997Z,15.78
2022-10-16T18:31:56.515Z,15.76
2022-10-16T18:34:27.030Z,15.73
2022-10-16T18:36:57.668Z,15.71
2022-10-16T18:39:26.669Z,15.61
2022-10-16T18:42:00.093Z,15.54
2022-10-16T18:44:31.354Z,15.52
2022-10-16T18:47:00.205Z,15.52
2022-10-16T18:49:29.715Z,15.50
2022-10-16T18:51:58.774Z,15.51
2022-10-16T18:54:27.556Z,15.45
2022-10-16T18:56:58.437Z,15.44
2022-10-16T18:59:27.666Z,15.37
2022-10-16T19:01:58.069Z,15.31
2022-10-16T19:04:28.539Z,15.31
2022-10-16T19:06:57.043Z,15.35
2022-10-16T19:09:26.441Z,15.26
2022-10-16T19:11:55.141Z,15.26
2022-10-16T19:14:25.861Z,15.23
2022-10-16T19:16:54.286Z,15.16
2022-10-16T19:19:24.010Z,15.18
2022-10-16T19:21:58.161Z,15.17
2022-10-16T19:24:27.485Z,15.13
2022-10-16T19:26:58.038Z,15.11
2022-10-16T19:29:28.336Z,15.17
2022-10-16T19:31:56.868Z,15.32
2022-10-16T19:34:27.194Z,15.31
2022-10-16T19:36:56.012Z,15.38
2022-10-16T19:39:25.389Z,15.40
2022-10-16T19:41:54.120Z,15.38
2022-10-16T19:44:22.846Z,15.16
2022-10-16T19:46:52.608Z,15.23
2022-10-16T19:49:22.197Z,15.22
2022-10-16T19:51:51.985Z,15.18
2022-10-16T19:54:20.854Z,15.15
2022-10-16T19:56:51.091Z,15.20
2022-10-16T19:59:20.439Z,15.10
2022-10-16T20:01:49.233Z,15.13
2022-10-16T20:04:19.404Z,15.13
2022-10-16T20:06:48.136Z,15.15
2022-10-16T20:09:17.014Z,15.21
2022-10-16T20:11:45.696Z,15.11
2022-10-16T20:14:14.559Z,15.09
2022-10-16T20:16:43.273Z,15.03
2022-10-16T20:19:12.455Z,15.06
2022-10-16T20:21:42.673Z,15.08
2022-10-16T20:24:11.581Z,14.98
2022-10-16T20:26:40.545Z,14.97
2022-10-16T20:29:10.685Z,15.01
2022-10-16T20:31:39.860Z,15.03
2022-10-16T20:34:09.898Z,14.89
2022-10-16T20:36:42.874Z,14.69
2022-10-16T20:39:14.899Z,14.64
2022-10-16T20:41:43.696Z,14.63
2022-10-16T20:44:12.535Z,14.80
2022-10-16T20:46:41.784Z,14.96
2022-10-16T20:49:11.621Z,15.01
2022-10-16T20:51:56.622Z,15.02
2022-10-16T20:54:26.709Z,15.05
2022-10-16T20:56:55.464Z,14.97
2022-10-16T20:59:24.240Z,14.88
2022-10-16T21:01:53.975Z,14.66
2022-10-16T21:04:22.725Z,14.55
2022-10-16T21:06:51.485Z,14.50
2022-10-16T21:09:20.307Z,14.48
2022-10-16T21:11:50.607Z,14.62
2022-10-16T21:14:19.552Z,14.53
2022-10-16T21:16:47.999Z,14.62
2022-10-16T21:19:16.789Z,14.52
2022-10-16T21:21:45.505Z,14.44
2022-10-16T21:24:16.626Z,14.39
2022-10-16T21:26:46.374Z,14.41
2022-10-16T21:29:16.772Z,14.45
2022-10-16T21:31:45.367Z,14.39
2022-10-16T21:34:14.084Z,14.39
2022-10-16T21:36:44.278Z,14.39
2022-10-16T21:39:14.425Z,14.32
2022-10-16T21:41:46.075Z,14.28
2022-10-16T21:44:17.114Z,14.27
2022-10-16T21:46:46.314Z,14.24
2022-10-16T21:49:17.220Z,14.24
2022-10-16T21:51:47.533Z,14.19
2022-10-16T21:54:17.955Z,14.18
2022-10-16T21:56:46.437Z,14.21
2022-10-16T21:59:16.982Z,14.18
2022-10-16T22:01:45.512Z,14.17
2022-10-16T22:04:16.094Z,14.14
2022-10-16T22:06:45.196Z,14.17
2022-10-16T22:09:14.749Z,14.19
2022-10-16T22:11:44.785Z,14.13
2022-10-16T22:14:16.936Z,14.12
2022-10-16T22:16:45.876Z,14.09
2022-10-16T22:19:15.670Z,14.07
2022-10-16T22:21:46.134Z,14.06
2022-10-16T22:24:15.470Z,14.02
2022-10-16T22:26:45.591Z,14.06
2022-10-16T22:29:16.757Z,14.02
2022-10-16T22:31:45.589Z,14.01
2022-10-16T22:34:16.062Z,13.99
2022-10-16T22:36:44.530Z,14.03
2022-10-16T22:39:13.255Z,14.02
2022-10-16T22:41:42.070Z,13.99
2022-10-16T22:44:13.260Z,13.87
2022-10-16T22:46:43.036Z,13.77
2022-10-16T22:49:11.783Z,13.79
2022-10-16T22:51:40.880Z,13.80
2022-10-16T22:54:09.692Z,13.80
2022-10-16T22:56:38.564Z,13.82
2022-10-16T22:59:08.055Z,13.79
2022-10-16T23:01:39.515Z,13.76
2022-10-16T23:04:10.433Z,13.74
2022-10-16T23:06:40.179Z,13.71
2022-10-16T23:09:09.070Z,13.71
2022-10-16T23:11:37.956Z,13.67
2022-10-16T23:14:06.849Z,13.63
2022-10-16T23:16:35.288Z,13.57
2022-10-16T23:19:04.012Z,13.45
2022-10-16T23:21:34.192Z,13.39
2022-10-16T23:24:02.942Z,13.34
2022-10-16T23:26:31.621Z,13.30
2022-10-16T23:29:00.741Z,13.31
2022-10-16T23:31:30.503Z,13.27
2022-10-16T23:33:59.791Z,13.20
2022-10-16T23:36:28.770Z,13.12
2022-10-16T23:38:59.109Z,13.13
2022-10-16T23:41:28.021Z,13.15
2022-10-16T23:43:56.509Z,13.13
2022-10-16T23:48:59.327Z,13.09
2022-10-16T23:51:28.083Z,13.07
2022-10-16T23:54:00.719Z,13.05
2022-10-16T23:56:29.658Z,12.92
2022-10-16T23:58:58.414Z,12.89
